sensor_id;sensor_type;location;lat;lon;timestamp;pressure;altitude;pressure_sealevel;temperature;humidity
24154;BME280;12312;53.362;-1.518;2023-02-15T00:01:10;100098.69;;;7.02;100.00
24154;BME280;12312;53.362;-1.518;2023-02-15T00:03:35;100090.00;;;7.00;99.68
24154;BME280;12312;53.362;-1.518;2023-02-15T00:06:02;100092.63;;;7.00;99.30
24154;BME280;12312;53.362;-1.518;2023-02-15T00:08:27;100085.66;;;6.97;98.70
24154;BME280;12312;53.362;-1.518;2023-02-15T00:10:53;100069.84;;;6.96;99.20
24154;BME280;12312;53.362;-1.518;2023-02-15T00:13:28;100074.19;;;6.98;99.26
24154;BME280;12312;53.362;-1.518;2023-02-15T00:15:53;100067.34;;;6.93;98.92
24154;BME280;12312;53.362;-1.518;2023-02-15T00:18:19;100063.66;;;6.97;98.11
24154;BME280;12312;53.362;-1.518;2023-02-15T00:20:44;100074.25;;;6.97;98.27
24154;BME280;12312;53.362;-1.518;2023-02-15T00:23:10;100068.22;;;6.93;98.08
24154;BME280;12312;53.362;-1.518;2023-02-15T00:25:35;100060.34;;;6.92;97.12
24154;BME280;12312;53.362;-1.518;2023-02-15T00:28:01;100056.78;;;6.93;96.57
24154;BME280;12312;53.362;-1.518;2023-02-15T00:30:26;100055.94;;;6.92;95.03
24154;BME280;12312;53.362;-1.518;2023-02-15T00:32:52;100054.25;;;6.90;94.37
24154;BME280;12312;53.362;-1.518;2023-02-15T00:35:17;100044.88;;;6.83;94.33
24154;BME280;12312;53.362;-1.518;2023-02-15T00:37:42;100039.81;;;6.78;93.61
24154;BME280;12312;53.362;-1.518;2023-02-15T00:40:08;100043.09;;;6.83;92.32
24154;BME280;12312;53.362;-1.518;2023-02-15T00:42:34;100037.88;;;6.82;92.19
24154;BME280;12312;53.362;-1.518;2023-02-15T00:44:59;100037.97;;;6.80;92.52
24154;BME280;12312;53.362;-1.518;2023-02-15T00:47:25;100037.16;;;6.78;92.64
24154;BME280;12312;53.362;-1.518;2023-02-15T00:49:50;100028.69;;;6.70;93.65
24154;BME280;12312;53.362;-1.518;2023-02-15T00:52:16;100030.56;;;6.68;93.94
24154;BME280;12312;53.362;-1.518;2023-02-15T00:54:41;100023.88;;;6.60;95.89
24154;BME280;12312;53.362;-1.518;2023-02-15T00:57:07;100024.94;;;6.56;96.68
24154;BME280;12312;53.362;-1.518;2023-02-15T00:59:32;100024.81;;;6.59;94.49
24154;BME280;12312;53.362;-1.518;2023-02-15T01:01:58;100016.94;;;6.57;94.88
24154;BME280;12312;53.362;-1.518;2023-02-15T01:04:23;100009.34;;;6.50;94.83
24154;BME280;12312;53.362;-1.518;2023-02-15T01:06:50;100005.91;;;6.48;94.06
24154;BME280;12312;53.362;-1.518;2023-02-15T01:09:15;99998.84;;;6.48;92.76
24154;BME280;12312;53.362;-1.518;2023-02-15T01:11:41;100005.91;;;6.48;93.27
24154;BME280;12312;53.362;-1.518;2023-02-15T01:14:06;100002.44;;;6.46;93.08
24154;BME280;12312;53.362;-1.518;2023-02-15T01:16:32;99997.44;;;6.40;93.63
24154;BME280;12312;53.362;-1.518;2023-02-15T01:18:57;99987.19;;;6.32;93.85
24154;BME280;12312;53.362;-1.518;2023-02-15T01:21:24;99990.63;;;6.34;94.28
24154;BME280;12312;53.362;-1.518;2023-02-15T01:23:50;99997.19;;;6.26;94.88
24154;BME280;12312;53.362;-1.518;2023-02-15T01:26:16;99984.22;;;6.20;95.98
24154;BME280;12312;53.362;-1.518;2023-02-15T01:28:42;99981.72;;;6.17;96.75
24154;BME280;12312;53.362;-1.518;2023-02-15T01:31:12;99978.34;;;6.13;97.06
24154;BME280;12312;53.362;-1.518;2023-02-15T01:33:38;99976.91;;;6.05;97.34
24154;BME280;12312;53.362;-1.518;2023-02-15T01:36:05;99977.84;;;6.04;97.88
24154;BME280;12312;53.362;-1.518;2023-02-15T01:38:30;99970.72;;;6.06;97.46
24154;BME280;12312;53.362;-1.518;2023-02-15T01:40:56;99969.72;;;6.08;97.21
24154;BME280;12312;53.362;-1.518;2023-02-15T01:43:46;99967.28;;;6.04;97.27
24154;BME280;12312;53.362;-1.518;2023-02-15T01:46:13;99962.94;;;6.03;97.33
24154;BME280;12312;53.362;-1.518;2023-02-15T01:48:52;99958.56;;;6.02;97.70
24154;BME280;12312;53.362;-1.518;2023-02-15T01:51:21;99957.84;;;5.98;98.00
24154;BME280;12312;53.362;-1.518;2023-02-15T01:54:15;99954.06;;;6.04;98.44
24154;BME280;12312;53.362;-1.518;2023-02-15T01:56:38;99950.88;;;5.96;98.11
24154;BME280;12312;53.362;-1.518;2023-02-15T01:59:09;99950.13;;;5.94;98.33
24154;BME280;12312;53.362;-1.518;2023-02-15T02:01:37;99948.63;;;5.87;98.39
24154;BME280;12312;53.362;-1.518;2023-02-15T02:04:11;99941.41;;;5.92;96.99
24154;BME280;12312;53.362;-1.518;2023-02-15T02:06:39;99945.94;;;5.88;96.96
24154;BME280;12312;53.362;-1.518;2023-02-15T02:09:05;99944.03;;;5.92;96.96
24154;BME280;12312;53.362;-1.518;2023-02-15T02:11:31;99925.81;;;5.86;97.22
24154;BME280;12312;53.362;-1.518;2023-02-15T02:13:57;99925.22;;;5.78;96.78
24154;BME280;12312;53.362;-1.518;2023-02-15T02:16:41;99922.59;;;5.78;97.45
24154;BME280;12312;53.362;-1.518;2023-02-15T02:33:36;99893.47;;;5.79;96.00
24154;BME280;12312;53.362;-1.518;2023-02-15T02:47:28;99864.19;;;5.65;94.18
24154;BME280;12312;53.362;-1.518;2023-02-15T02:50:00;99852.88;;;5.62;94.94
24154;BME280;12312;53.362;-1.518;2023-02-15T02:52:42;99851.94;;;5.63;95.60
24154;BME280;12312;53.362;-1.518;2023-02-15T03:00:29;99849.72;;;5.32;96.57
24154;BME280;12312;53.362;-1.518;2023-02-15T03:03:00;99841.97;;;5.49;97.08
24154;BME280;12312;53.362;-1.518;2023-02-15T03:05:32;99835.19;;;5.43;97.83
24154;BME280;12312;53.362;-1.518;2023-02-15T03:08:00;99835.69;;;5.51;97.08
24154;BME280;12312;53.362;-1.518;2023-02-15T03:10:31;99837.00;;;5.41;98.49
24154;BME280;12312;53.362;-1.518;2023-02-15T03:12:59;99827.25;;;5.43;97.14
24154;BME280;12312;53.362;-1.518;2023-02-15T03:15:31;99815.59;;;5.27;97.89
24154;BME280;12312;53.362;-1.518;2023-02-15T03:18:21;99814.84;;;5.25;98.24
24154;BME280;12312;53.362;-1.518;2023-02-15T03:20:47;99818.13;;;5.30;98.01
24154;BME280;12312;53.362;-1.518;2023-02-15T03:23:18;99812.53;;;5.38;98.26
24154;BME280;12312;53.362;-1.518;2023-02-15T03:25:50;99812.97;;;5.27;99.01
24154;BME280;12312;53.362;-1.518;2023-02-15T03:28:25;99801.50;;;5.28;98.52
24154;BME280;12312;53.362;-1.518;2023-02-15T03:30:55;99803.34;;;5.26;98.67
24154;BME280;12312;53.362;-1.518;2023-02-15T03:33:23;99787.66;;;5.23;98.22
24154;BME280;12312;53.362;-1.518;2023-02-15T03:56:04;99770.94;;;4.60;100.00
24154;BME280;12312;53.362;-1.518;2023-02-15T03:58:29;99768.44;;;4.78;100.00
24154;BME280;12312;53.362;-1.518;2023-02-15T04:01:25;99759.34;;;4.85;100.00
24154;BME280;12312;53.362;-1.518;2023-02-15T04:04:18;99758.69;;;4.80;100.00
24154;BME280;12312;53.362;-1.518;2023-02-15T04:06:44;99758.03;;;4.75;100.00
24154;BME280;12312;53.362;-1.518;2023-02-15T04:09:11;99744.72;;;4.78;100.00
24154;BME280;12312;53.362;-1.518;2023-02-15T04:11:55;99750.06;;;4.97;100.00
24154;BME280;12312;53.362;-1.518;2023-02-15T04:14:21;99749.44;;;4.92;100.00
24154;BME280;12312;53.362;-1.518;2023-02-15T04:17:07;99745.50;;;4.80;100.00
24154;BME280;12312;53.362;-1.518;2023-02-15T04:19:33;99731.16;;;4.87;100.00
24154;BME280;12312;53.362;-1.518;2023-02-15T04:22:17;99731.28;;;4.84;100.00
24154;BME280;12312;53.362;-1.518;2023-02-15T04:25:02;99721.81;;;4.79;100.00
24154;BME280;12312;53.362;-1.518;2023-02-15T04:27:37;99724.41;;;4.80;100.00
24154;BME280;12312;53.362;-1.518;2023-02-15T04:30:04;99719.06;;;4.82;100.00
24154;BME280;12312;53.362;-1.518;2023-02-15T04:32:30;99718.16;;;4.83;100.00
24154;BME280;12312;53.362;-1.518;2023-02-15T04:34:55;99720.25;;;4.75;100.00
24154;BME280;12312;53.362;-1.518;2023-02-15T04:37:21;99713.41;;;4.71;100.00
24154;BME280;12312;53.362;-1.518;2023-02-15T04:39:46;99713.84;;;4.80;100.00
24154;BME280;12312;53.362;-1.518;2023-02-15T04:42:12;99706.50;;;4.88;99.93
24154;BME280;12312;53.362;-1.518;2023-02-15T04:44:37;99710.06;;;4.87;98.63
24154;BME280;12312;53.362;-1.518;2023-02-15T04:47:03;99697.53;;;4.92;97.52
24154;BME280;12312;53.362;-1.518;2023-02-15T04:49:28;99696.75;;;4.90;97.72
24154;BME280;12312;53.362;-1.518;2023-02-15T04:51:54;99694.13;;;4.90;98.36
24154;BME280;12312;53.362;-1.518;2023-02-15T04:54:19;99697.53;;;4.92;98.05
24154;BME280;12312;53.362;-1.518;2023-02-15T04:56:45;99681.50;;;4.97;97.46
24154;BME280;12312;53.362;-1.518;2023-02-15T04:59:11;99690.81;;;5.05;96.49
24154;BME280;12312;53.362;-1.518;2023-02-15T05:01:36;99686.59;;;5.01;96.93
24154;BME280;12312;53.362;-1.518;2023-02-15T05:04:02;99684.22;;;5.15;96.21
24154;BME280;12312;53.362;-1.518;2023-02-15T05:06:28;99683.03;;;5.02;97.22
24154;BME280;12312;53.362;-1.518;2023-02-15T05:08:54;99679.88;;;4.94;96.82
24154;BME280;12312;53.362;-1.518;2023-02-15T05:11:20;99677.34;;;4.71;97.88
24154;BME280;12312;53.362;-1.518;2023-02-15T05:13:45;99682.81;;;4.87;98.56
24154;BME280;12312;53.362;-1.518;2023-02-15T05:16:11;99674.97;;;4.85;98.62
24154;BME280;12312;53.362;-1.518;2023-02-15T05:18:36;99678.81;;;4.78;99.48
24154;BME280;12312;53.362;-1.518;2023-02-15T05:21:02;99671.94;;;4.74;99.69
24154;BME280;12312;53.362;-1.518;2023-02-15T05:23:28;99676.91;;;4.60;99.41
24154;BME280;12312;53.362;-1.518;2023-02-15T05:25:53;99664.38;;;4.45;100.00
24154;BME280;12312;53.362;-1.518;2023-02-15T05:28:38;99671.41;;;4.66;99.64
24154;BME280;12312;53.362;-1.518;2023-02-15T05:31:10;99671.53;;;4.63;100.00
24154;BME280;12312;53.362;-1.518;2023-02-15T05:33:36;99658.56;;;4.37;100.00
24154;BME280;12312;53.362;-1.518;2023-02-15T05:36:02;99644.56;;;4.57;99.94
24154;BME280;12312;53.362;-1.518;2023-02-15T05:38:29;99649.53;;;4.64;99.59
24154;BME280;12312;53.362;-1.518;2023-02-15T05:40:55;99650.97;;;4.71;98.96
24154;BME280;12312;53.362;-1.518;2023-02-15T05:43:21;99651.91;;;4.70;98.73
24154;BME280;12312;53.362;-1.518;2023-02-15T05:45:54;99646.63;;;4.70;98.31
24154;BME280;12312;53.362;-1.518;2023-02-15T05:48:22;99631.34;;;4.78;97.47
24154;BME280;12312;53.362;-1.518;2023-02-15T05:50:57;99631.47;;;4.95;96.39
24154;BME280;12312;53.362;-1.518;2023-02-15T05:53:22;99643.97;;;5.10;95.47
24154;BME280;12312;53.362;-1.518;2023-02-15T05:55:48;99629.16;;;5.08;95.99
24154;BME280;12312;53.362;-1.518;2023-02-15T05:58:13;99625.53;;;5.10;96.15
24154;BME280;12312;53.362;-1.518;2023-02-15T06:00:39;99615.19;;;5.06;95.84
24154;BME280;12312;53.362;-1.518;2023-02-15T06:03:04;99607.31;;;5.04;95.75
24154;BME280;12312;53.362;-1.518;2023-02-15T06:05:30;99615.44;;;5.00;96.34
24154;BME280;12312;53.362;-1.518;2023-02-15T06:07:55;99605.16;;;4.94;96.59
24154;BME280;12312;53.362;-1.518;2023-02-15T06:10:21;99611.56;;;4.88;96.79
24154;BME280;12312;53.362;-1.518;2023-02-15T06:12:46;99612.56;;;4.86;96.60
24154;BME280;12312;53.362;-1.518;2023-02-15T06:15:12;99618.69;;;4.86;96.51
24154;BME280;12312;53.362;-1.518;2023-02-15T06:17:41;99592.44;;;4.83;96.72
24154;BME280;12312;53.362;-1.518;2023-02-15T06:20:07;99606.16;;;4.91;96.50
24154;BME280;12312;53.362;-1.518;2023-02-15T06:22:33;99599.19;;;4.90;96.24
24154;BME280;12312;53.362;-1.518;2023-02-15T06:24:59;99610.84;;;4.85;97.36
24154;BME280;12312;53.362;-1.518;2023-02-15T06:27:24;99615.41;;;4.81;97.04
24154;BME280;12312;53.362;-1.518;2023-02-15T06:29:50;99620.81;;;4.78;97.41
24154;BME280;12312;53.362;-1.518;2023-02-15T06:32:16;99621.97;;;4.71;97.87
24154;BME280;12312;53.362;-1.518;2023-02-15T06:34:41;99621.56;;;4.60;99.09
24154;BME280;12312;53.362;-1.518;2023-02-15T06:37:07;99615.72;;;4.54;99.44
24154;BME280;12312;53.362;-1.518;2023-02-15T06:39:33;99632.88;;;4.42;99.70
24154;BME280;12312;53.362;-1.518;2023-02-15T06:41:59;99632.28;;;4.14;100.00
24154;BME280;12312;53.362;-1.518;2023-02-15T06:44:24;99628.47;;;4.21;100.00
24154;BME280;12312;53.362;-1.518;2023-02-15T06:46:50;99627.28;;;4.08;100.00
24154;BME280;12312;53.362;-1.518;2023-02-15T06:49:15;99620.56;;;4.00;100.00
24154;BME280;12312;53.362;-1.518;2023-02-15T06:51:41;99624.75;;;4.05;100.00
24154;BME280;12312;53.362;-1.518;2023-02-15T06:54:06;99626.13;;;3.92;100.00
24154;BME280;12312;53.362;-1.518;2023-02-15T06:56:33;99625.31;;;3.92;100.00
24154;BME280;12312;53.362;-1.518;2023-02-15T07:02:05;99609.03;;;4.04;100.00
24154;BME280;12312;53.362;-1.518;2023-02-15T07:04:31;99606.88;;;4.13;100.00
24154;BME280;12312;53.362;-1.518;2023-02-15T07:06:56;99605.97;;;4.14;100.00
24154;BME280;12312;53.362;-1.518;2023-02-15T07:09:22;99597.00;;;4.18;100.00
24154;BME280;12312;53.362;-1.518;2023-02-15T07:11:47;99606.19;;;4.30;100.00
24154;BME280;12312;53.362;-1.518;2023-02-15T07:14:31;99607.28;;;4.24;100.00
24154;BME280;12312;53.362;-1.518;2023-02-15T07:16:57;99611.34;;;4.33;100.00
24154;BME280;12312;53.362;-1.518;2023-02-15T07:19:23;99615.00;;;4.07;100.00
24154;BME280;12312;53.362;-1.518;2023-02-15T07:21:48;99606.69;;;3.96;100.00
24154;BME280;12312;53.362;-1.518;2023-02-15T07:24:14;99610.34;;;3.92;100.00
24154;BME280;12312;53.362;-1.518;2023-02-15T07:26:39;99611.03;;;3.97;100.00
24154;BME280;12312;53.362;-1.518;2023-02-15T07:29:05;99605.59;;;4.02;100.00
24154;BME280;12312;53.362;-1.518;2023-02-15T07:31:30;99605.19;;;3.89;100.00
24154;BME280;12312;53.362;-1.518;2023-02-15T07:33:56;99605.88;;;3.94;100.00
24154;BME280;12312;53.362;-1.518;2023-02-15T07:36:21;99616.13;;;4.02;100.00
24154;BME280;12312;53.362;-1.518;2023-02-15T07:38:47;99614.88;;;4.10;100.00
24154;BME280;12312;53.362;-1.518;2023-02-15T07:41:14;99611.78;;;4.22;100.00
24154;BME280;12312;53.362;-1.518;2023-02-15T07:43:41;99607.59;;;4.38;100.00
24154;BME280;12312;53.362;-1.518;2023-02-15T07:46:11;99604.81;;;4.41;100.00
24154;BME280;12312;53.362;-1.518;2023-02-15T07:48:38;99606.19;;;4.30;100.00
24154;BME280;12312;53.362;-1.518;2023-02-15T07:51:06;99597.69;;;4.23;100.00
24154;BME280;12312;53.362;-1.518;2023-02-15T07:53:32;99596.38;;;4.33;100.00
24154;BME280;12312;53.362;-1.518;2023-02-15T07:56:03;99592.84;;;4.34;100.00
24154;BME280;12312;53.362;-1.518;2023-02-15T07:58:29;99580.03;;;4.25;100.00
24154;BME280;12312;53.362;-1.518;2023-02-15T08:01:14;99576.22;;;4.32;100.00
24154;BME280;12312;53.362;-1.518;2023-02-15T08:03:40;99579.72;;;4.33;100.00
24154;BME280;12312;53.362;-1.518;2023-02-15T08:06:06;99571.25;;;4.46;100.00
24154;BME280;12312;53.362;-1.518;2023-02-15T08:08:34;99566.63;;;4.31;100.00
24154;BME280;12312;53.362;-1.518;2023-02-15T08:17:01;99561.94;;;4.38;100.00
24154;BME280;12312;53.362;-1.518;2023-02-15T08:19:31;99561.66;;;4.44;100.00
24154;BME280;12312;53.362;-1.518;2023-02-15T08:22:06;99560.69;;;4.46;100.00
24154;BME280;12312;53.362;-1.518;2023-02-15T08:24:34;99539.88;;;4.40;100.00
24154;BME280;12312;53.362;-1.518;2023-02-15T08:27:01;99536.31;;;4.41;100.00
24154;BME280;12312;53.362;-1.518;2023-02-15T08:29:29;99534.22;;;4.49;100.00
24154;BME280;12312;53.362;-1.518;2023-02-15T08:32:00;99535.66;;;4.56;100.00
24154;BME280;12312;53.362;-1.518;2023-02-15T08:34:35;99542.25;;;4.66;100.00
24154;BME280;12312;53.362;-1.518;2023-02-15T08:37:02;99548.09;;;4.73;100.00
24154;BME280;12312;53.362;-1.518;2023-02-15T08:39:27;99541.59;;;4.81;100.00
24154;BME280;12312;53.362;-1.518;2023-02-15T08:41:54;99540.84;;;4.98;100.00
24154;BME280;12312;53.362;-1.518;2023-02-15T08:44:19;99519.53;;;5.02;100.00
24154;BME280;12312;53.362;-1.518;2023-02-15T08:46:47;99525.19;;;5.13;100.00
24154;BME280;12312;53.362;-1.518;2023-02-15T08:49:16;99530.94;;;5.21;100.00
24154;BME280;12312;53.362;-1.518;2023-02-15T08:51:43;99528.66;;;5.14;100.00
24154;BME280;12312;53.362;-1.518;2023-02-15T08:54:14;99527.41;;;5.22;100.00
24154;BME280;12312;53.362;-1.518;2023-02-15T08:56:41;99534.25;;;5.26;100.00
24154;BME280;12312;53.362;-1.518;2023-02-15T08:59:12;99526.97;;;5.31;100.00
24154;BME280;12312;53.362;-1.518;2023-02-15T09:01:38;99522.53;;;5.50;100.00
24154;BME280;12312;53.362;-1.518;2023-02-15T09:04:05;99527.81;;;5.50;100.00
24154;BME280;12312;53.362;-1.518;2023-02-15T09:06:34;99521.53;;;5.53;100.00
24154;BME280;12312;53.362;-1.518;2023-02-15T09:08:59;99524.50;;;5.64;100.00
24154;BME280;12312;53.362;-1.518;2023-02-15T09:11:30;99528.66;;;5.70;100.00
24154;BME280;12312;53.362;-1.518;2023-02-15T09:13:57;99527.16;;;5.83;99.79
24154;BME280;12312;53.362;-1.518;2023-02-15T09:16:25;99516.34;;;6.06;98.62
24154;BME280;12312;53.362;-1.518;2023-02-15T09:18:51;99523.31;;;6.07;97.92
24154;BME280;12312;53.362;-1.518;2023-02-15T09:21:20;99524.59;;;6.17;97.58
24154;BME280;12312;53.362;-1.518;2023-02-15T09:23:47;99529.25;;;6.46;95.96
24154;BME280;12312;53.362;-1.518;2023-02-15T09:26:17;99535.94;;;6.70;93.31
24154;BME280;12312;53.362;-1.518;2023-02-15T09:28:43;99519.69;;;6.93;91.22
24154;BME280;12312;53.362;-1.518;2023-02-15T09:33:35;99507.47;;;7.07;89.95
24154;BME280;12312;53.362;-1.518;2023-02-15T09:36:02;99518.97;;;7.06;89.94
24154;BME280;12312;53.362;-1.518;2023-02-15T09:38:28;99506.34;;;7.11;90.39
24154;BME280;12312;53.362;-1.518;2023-02-15T09:41:14;99521.53;;;7.08;91.03
24154;BME280;12312;53.362;-1.518;2023-02-15T09:58:47;99487.97;;;7.41;89.19
24154;BME280;12312;53.362;-1.518;2023-02-15T10:10:02;99472.06;;;7.41;89.57
24154;BME280;12312;53.362;-1.518;2023-02-15T10:23:26;99463.97;;;8.05;84.72
24154;BME280;12312;53.362;-1.518;2023-02-15T10:26:20;99464.97;;;8.02;84.79
24154;BME280;12312;53.362;-1.518;2023-02-15T10:29:00;99469.38;;;8.17;84.09
24154;BME280;12312;53.362;-1.518;2023-02-15T10:31:37;99468.91;;;8.26;82.90
24154;BME280;12312;53.362;-1.518;2023-02-15T10:34:15;99469.38;;;8.33;83.28
24154;BME280;12312;53.362;-1.518;2023-02-15T10:50:49;99461.50;;;8.31;82.63
24154;BME280;12312;53.362;-1.518;2023-02-15T10:56:09;99468.22;;;8.07;84.81
24154;BME280;12312;53.362;-1.518;2023-02-15T11:01:34;99471.38;;;8.29;85.14
24154;BME280;12312;53.362;-1.518;2023-02-15T11:04:34;99474.75;;;8.31;84.98
24154;BME280;12312;53.362;-1.518;2023-02-15T11:07:08;99448.66;;;8.39;84.16
24154;BME280;12312;53.362;-1.518;2023-02-15T11:09:44;99463.06;;;8.35;84.37
24154;BME280;12312;53.362;-1.518;2023-02-15T11:12:13;99460.22;;;8.38;84.65
24154;BME280;12312;53.362;-1.518;2023-02-15T11:17:49;99462.50;;;8.58;84.45
24154;BME280;12312;53.362;-1.518;2023-02-15T11:22:58;99479.59;;;8.82;83.77
24154;BME280;12312;53.362;-1.518;2023-02-15T11:25:30;99468.63;;;8.88;83.77
24154;BME280;12312;53.362;-1.518;2023-02-15T11:27:56;99470.47;;;9.29;83.03
24154;BME280;12312;53.362;-1.518;2023-02-15T11:30:25;99467.69;;;9.44;81.83
24154;BME280;12312;53.362;-1.518;2023-02-15T11:32:55;99471.56;;;9.53;82.20
24154;BME280;12312;53.362;-1.518;2023-02-15T11:40:36;99462.84;;;9.51;81.61
24154;BME280;12312;53.362;-1.518;2023-02-15T11:43:13;99459.31;;;9.64;81.51
24154;BME280;12312;53.362;-1.518;2023-02-15T11:45:42;99463.75;;;9.64;81.71
24154;BME280;12312;53.362;-1.518;2023-02-15T11:48:11;99465.78;;;9.87;81.82
24154;BME280;12312;53.362;-1.518;2023-02-15T11:50:37;99448.16;;;9.98;81.25
24154;BME280;12312;53.362;-1.518;2023-02-15T11:53:09;99454.19;;;9.88;80.68
24154;BME280;12312;53.362;-1.518;2023-02-15T11:55:35;99446.75;;;10.07;80.60
24154;BME280;12312;53.362;-1.518;2023-02-15T11:58:06;99439.44;;;9.96;82.09
24154;BME280;12312;53.362;-1.518;2023-02-15T12:00:56;99452.00;;;10.33;80.89
24154;BME280;12312;53.362;-1.518;2023-02-15T12:03:32;99445.56;;;10.75;79.21
24154;BME280;12312;53.362;-1.518;2023-02-15T12:06:02;99450.09;;;10.60;79.86
24154;BME280;12312;53.362;-1.518;2023-02-15T12:08:37;99441.38;;;10.46;80.29
24154;BME280;12312;53.362;-1.518;2023-02-15T12:11:11;99434.38;;;10.95;79.06
24154;BME280;12312;53.362;-1.518;2023-02-15T12:14:00;99446.69;;;10.71;79.70
24154;BME280;12312;53.362;-1.518;2023-02-15T12:16:34;99436.72;;;11.36;78.24
24154;BME280;12312;53.362;-1.518;2023-02-15T12:21:49;99438.44;;;11.24;78.68
24154;BME280;12312;53.362;-1.518;2023-02-15T12:24:17;99433.22;;;11.35;79.25
24154;BME280;12312;53.362;-1.518;2023-02-15T12:26:44;99433.53;;;11.31;79.39
24154;BME280;12312;53.362;-1.518;2023-02-15T12:29:16;99427.97;;;11.46;79.34
24154;BME280;12312;53.362;-1.518;2023-02-15T12:31:45;99411.06;;;11.71;77.64
24154;BME280;12312;53.362;-1.518;2023-02-15T12:34:21;99430.59;;;11.59;78.55
24154;BME280;12312;53.362;-1.518;2023-02-15T12:36:53;99427.22;;;11.80;78.65
24154;BME280;12312;53.362;-1.518;2023-02-15T12:39:25;99423.00;;;11.65;79.48
24154;BME280;12312;53.362;-1.518;2023-02-15T12:49:43;99438.16;;;10.41;86.65
24154;BME280;12312;53.362;-1.518;2023-02-15T12:52:29;99427.50;;;10.16;88.42
24154;BME280;12312;53.362;-1.518;2023-02-15T12:54:54;99439.59;;;10.07;88.52
24154;BME280;12312;53.362;-1.518;2023-02-15T12:59:59;99429.38;;;9.75;92.74
24154;BME280;12312;53.362;-1.518;2023-02-15T13:02:36;99430.13;;;9.50;96.07
24154;BME280;12312;53.362;-1.518;2023-02-15T13:08:04;99434.31;;;9.40;97.85
24154;BME280;12312;53.362;-1.518;2023-02-15T13:10:37;99440.22;;;9.31;100.00
24154;BME280;12312;53.362;-1.518;2023-02-15T13:13:11;99447.03;;;9.35;99.16
24154;BME280;12312;53.362;-1.518;2023-02-15T13:15:46;99439.38;;;9.31;100.00
24154;BME280;12312;53.362;-1.518;2023-02-15T13:18:17;99444.69;;;9.31;100.00
24154;BME280;12312;53.362;-1.518;2023-02-15T13:20:44;99430.03;;;9.38;99.62
24154;BME280;12312;53.362;-1.518;2023-02-15T13:23:26;99428.72;;;9.45;99.83
24154;BME280;12312;53.362;-1.518;2023-02-15T13:25:55;99426.88;;;9.86;98.14
24154;BME280;12312;53.362;-1.518;2023-02-15T13:28:26;99433.88;;;9.87;97.12
24154;BME280;12312;53.362;-1.518;2023-02-15T13:30:53;99439.25;;;9.73;98.12
24154;BME280;12312;53.362;-1.518;2023-02-15T13:33:31;99432.28;;;9.58;99.33
24154;BME280;12312;53.362;-1.518;2023-02-15T13:36:26;99433.22;;;9.57;98.62
24154;BME280;12312;53.362;-1.518;2023-02-15T13:42:00;99437.50;;;9.45;99.91
24154;BME280;12312;53.362;-1.518;2023-02-15T13:58:54;99410.03;;;10.12;96.68
24154;BME280;12312;53.362;-1.518;2023-02-15T14:01:34;99423.91;;;10.03;96.31
24154;BME280;12312;53.362;-1.518;2023-02-15T14:10:00;99414.44;;;9.60;98.20
24154;BME280;12312;53.362;-1.518;2023-02-15T14:13:37;99415.44;;;9.45;99.47
24154;BME280;12312;53.362;-1.518;2023-02-15T14:24:32;99406.31;;;9.49;98.36
24154;BME280;12312;53.362;-1.518;2023-02-15T14:27:10;99402.66;;;9.37;99.18
24154;BME280;12312;53.362;-1.518;2023-02-15T14:29:51;99407.59;;;9.56;98.05
24154;BME280;12312;53.362;-1.518;2023-02-15T14:32:42;99407.81;;;9.53;99.33
24154;BME280;12312;53.362;-1.518;2023-02-15T14:35:18;99399.31;;;9.48;98.86
24154;BME280;12312;53.362;-1.518;2023-02-15T14:40:45;99394.19;;;9.45;99.93
24154;BME280;12312;53.362;-1.518;2023-02-15T14:44:08;99389.81;;;9.44;100.00
24154;BME280;12312;53.362;-1.518;2023-02-15T14:46:59;99396.06;;;9.43;99.63
24154;BME280;12312;53.362;-1.518;2023-02-15T14:49:33;99396.06;;;9.43;99.57
24154;BME280;12312;53.362;-1.518;2023-02-15T14:52:08;99386.94;;;9.47;99.21
24154;BME280;12312;53.362;-1.518;2023-02-15T14:59:37;99416.16;;;9.47;99.12
24154;BME280;12312;53.362;-1.518;2023-02-15T15:04:40;99423.03;;;9.37;99.57
24154;BME280;12312;53.362;-1.518;2023-02-15T15:09:34;99426.84;;;9.33;100.00
24154;BME280;12312;53.362;-1.518;2023-02-15T15:14:50;99426.06;;;9.45;99.37
24154;BME280;12312;53.362;-1.518;2023-02-15T15:17:52;99422.66;;;9.43;99.31
24154;BME280;12312;53.362;-1.518;2023-02-15T15:25:48;99424.72;;;9.38;98.83
24154;BME280;12312;53.362;-1.518;2023-02-15T15:48:38;99451.88;;;9.29;99.14
24154;BME280;12312;53.362;-1.518;2023-02-15T15:51:29;99443.81;;;9.30;98.19
24154;BME280;12312;53.362;-1.518;2023-02-15T15:53:56;99459.94;;;9.27;98.43
24154;BME280;12312;53.362;-1.518;2023-02-15T15:56:28;99449.03;;;9.18;99.01
24154;BME280;12312;53.362;-1.518;2023-02-15T15:59:01;99453.13;;;9.09;98.73
24154;BME280;12312;53.362;-1.518;2023-02-15T16:01:30;99456.66;;;9.10;98.48
24154;BME280;12312;53.362;-1.518;2023-02-15T16:03:58;99449.91;;;9.04;98.17
24154;BME280;12312;53.362;-1.518;2023-02-15T16:06:35;99457.44;;;8.97;98.69
24154;BME280;12312;53.362;-1.518;2023-02-15T16:09:33;99467.66;;;8.89;99.99
24154;BME280;12312;53.362;-1.518;2023-02-15T16:11:58;99463.84;;;8.93;99.97
24154;BME280;12312;53.362;-1.518;2023-02-15T16:16:57;99464.22;;;8.87;99.79
24154;BME280;12312;53.362;-1.518;2023-02-15T16:19:29;99461.38;;;8.90;100.00
24154;BME280;12312;53.362;-1.518;2023-02-15T16:21:58;99467.06;;;8.84;100.00
24154;BME280;12312;53.362;-1.518;2023-02-15T16:32:51;99472.38;;;8.84;100.00
24154;BME280;12312;53.362;-1.518;2023-02-15T16:35:19;99467.84;;;9.00;100.00
24154;BME280;12312;53.362;-1.518;2023-02-15T16:37:45;99472.97;;;8.89;100.00
24154;BME280;12312;53.362;-1.518;2023-02-15T16:42:50;99481.47;;;9.08;100.00
24154;BME280;12312;53.362;-1.518;2023-02-15T16:45:19;99478.84;;;8.94;100.00
24154;BME280;12312;53.362;-1.518;2023-02-15T16:47:48;99476.94;;;8.82;100.00
24154;BME280;12312;53.362;-1.518;2023-02-15T16:50:20;99480.88;;;8.61;100.00
24154;BME280;12312;53.362;-1.518;2023-02-15T16:52:48;99476.09;;;8.82;100.00
24154;BME280;12312;53.362;-1.518;2023-02-15T16:55:41;99481.28;;;8.69;100.00
24154;BME280;12312;53.362;-1.518;2023-02-15T16:58:14;99481.09;;;8.72;100.00
24154;BME280;12312;53.362;-1.518;2023-02-15T17:00:41;99486.19;;;8.61;100.00
24154;BME280;12312;53.362;-1.518;2023-02-15T17:03:22;99495.00;;;8.62;100.00